createdAt,value
2023-05-06T00:01:39.642Z,6.27
2023-05-06T00:04:06.122Z,6.53
2023-05-06T00:06:32.702Z,6.68
2023-05-06T00:08:59.451Z,6.22
2023-05-06T00:11:26.738Z,5.93
2023-05-06T00:13:53.091Z,5.83
2023-05-06T00:16:19.434Z,6.97
2023-05-06T00:18:45.849Z,6.10
2023-05-06T00:21:12.176Z,6.32
2023-05-06T00:23:38.563Z,6.43
2023-05-06T00:26:05.188Z,6.10
2023-05-06T00:28:31.589Z,6.70
2023-05-06T00:30:57.914Z,6.88
2023-05-06T00:33:24.302Z,6.53
2023-05-06T00:35:52.153Z,6.53
2023-05-06T00:38:18.532Z,6.27
2023-05-06T00:40:45.352Z,6.68
2023-05-06T00:43:12.304Z,6.43
2023-05-06T00:45:38.751Z,6.45
2023-05-06T00:48:05.863Z,6.78
2023-05-06T00:50:33.092Z,6.80
2023-05-06T00:53:00.339Z,6.63
2023-05-06T00:55:27.416Z,6.90
2023-05-06T00:57:54.348Z,6.38
2023-05-06T01:00:21.049Z,6.20
2023-05-06T01:02:48.397Z,6.53
2023-05-06T01:05:17.290Z,6.05
2023-05-06T01:08:05.703Z,6.50
2023-05-06T01:10:36.742Z,6.57
2023-05-06T01:13:35.473Z,5.95
2023-05-06T01:16:02.216Z,5.93
2023-05-06T01:18:29.906Z,5.68
2023-05-06T01:20:56.616Z,6.57
2023-05-06T01:23:23.015Z,6.22
2023-05-06T01:25:49.384Z,5.93
2023-05-06T01:28:15.703Z,6.60
2023-05-06T01:30:53.136Z,5.90
2023-05-06T01:33:28.375Z,6.10
2023-05-06T01:36:07.049Z,5.82
2023-05-06T01:38:52.730Z,5.68
2023-05-06T01:41:19.983Z,5.97
2023-05-06T01:43:47.868Z,5.60
2023-05-06T01:46:18.491Z,6.30
2023-05-06T01:48:46.216Z,5.93
2023-05-06T01:51:12.757Z,7.05
2023-05-06T01:53:39.092Z,6.67
2023-05-06T01:56:05.815Z,6.47
2023-05-06T01:58:32.162Z,7.15
2023-05-06T02:00:58.632Z,6.72
2023-05-06T02:03:25.115Z,7.38
2023-05-06T02:05:51.503Z,7.43
2023-05-06T02:08:17.846Z,7.57
2023-05-06T02:10:44.187Z,7.18
2023-05-06T02:13:11.861Z,7.70
2023-05-06T02:15:38.232Z,7.50
2023-05-06T02:18:04.671Z,7.47
2023-05-06T02:20:31.054Z,7.70
2023-05-06T02:22:57.382Z,7.95
2023-05-06T02:25:23.709Z,7.35
2023-05-06T02:27:50.023Z,7.93
2023-05-06T02:30:16.386Z,8.57
2023-05-06T02:32:42.931Z,7.75
2023-05-06T02:35:09.812Z,8.20
2023-05-06T02:37:36.418Z,7.45
2023-05-06T02:40:02.753Z,8.50
2023-05-06T02:42:29.158Z,8.40
2023-05-06T02:44:55.555Z,9.05
2023-05-06T02:47:21.915Z,8.90
2023-05-06T02:49:48.298Z,8.63
2023-05-06T02:52:14.744Z,8.73
2023-05-06T02:54:41.080Z,8.27
2023-05-06T02:57:07.482Z,8.70
2023-05-06T02:59:35.030Z,8.52
2023-05-06T03:02:01.395Z,8.30
2023-05-06T03:04:27.796Z,9.10
2023-05-06T03:06:54.232Z,8.93
2023-05-06T03:09:20.562Z,8.55
2023-05-06T03:11:47.256Z,8.80
2023-05-06T03:14:13.604Z,9.75
2023-05-06T03:16:39.997Z,10.52
2023-05-06T03:19:06.369Z,10.93
2023-05-06T03:21:32.897Z,9.52
2023-05-06T03:23:59.462Z,9.98
2023-05-06T03:26:25.796Z,10.45
2023-05-06T03:28:52.125Z,10.48
2023-05-06T03:31:18.476Z,10.60
2023-05-06T03:33:44.839Z,10.93
2023-05-06T03:36:11.198Z,10.07
2023-05-06T03:38:38.545Z,10.10
2023-05-06T03:41:04.885Z,10.23
2023-05-06T03:43:31.220Z,10.03
2023-05-06T03:45:58.060Z,10.35
2023-05-06T03:48:24.422Z,10.57
2023-05-06T03:50:51.173Z,10.35
2023-05-06T03:53:17.547Z,10.80
2023-05-06T03:55:43.874Z,9.87
2023-05-06T03:58:10.935Z,10.25
2023-05-06T04:00:37.299Z,11.30
2023-05-06T04:03:03.738Z,11.10
2023-05-06T04:05:30.136Z,10.73
2023-05-06T04:07:56.468Z,11.03
2023-05-06T04:10:22.794Z,11.38
2023-05-06T04:12:49.137Z,11.27
2023-05-06T04:15:15.495Z,11.10
2023-05-06T04:17:41.845Z,11.30
2023-05-06T04:20:08.926Z,11.20
2023-05-06T04:22:35.286Z,10.82
2023-05-06T04:25:01.640Z,11.75
2023-05-06T04:27:27.977Z,11.40
2023-05-06T04:29:54.319Z,11.07
2023-05-06T04:32:20.634Z,10.43
2023-05-06T04:34:46.978Z,11.05
2023-05-06T04:37:13.290Z,12.13
2023-05-06T04:39:39.616Z,11.20
2023-05-06T04:42:06.067Z,11.50
2023-05-06T04:44:32.462Z,11.63
2023-05-06T04:46:58.789Z,11.45
2023-05-06T04:49:25.123Z,12.25
2023-05-06T04:51:51.462Z,11.60
2023-05-06T04:54:17.789Z,11.38
2023-05-06T04:56:44.116Z,11.60
2023-05-06T04:59:10.520Z,10.73
2023-05-06T05:01:36.885Z,10.77
2023-05-06T05:04:03.310Z,10.82
2023-05-06T05:06:29.637Z,10.60
2023-05-06T05:08:56.038Z,10.70
2023-05-06T05:11:22.609Z,11.55
2023-05-06T05:13:48.931Z,11.18
2023-05-06T05:16:15.341Z,10.45
2023-05-06T05:18:41.697Z,11.10
2023-05-06T05:21:08.050Z,11.93
2023-05-06T05:23:34.481Z,11.05
2023-05-06T05:26:01.334Z,11.05
2023-05-06T05:28:27.652Z,11.43
2023-05-06T05:30:54.009Z,11.07
2023-05-06T05:33:20.429Z,11.20
2023-05-06T05:35:46.863Z,11.52
2023-05-06T05:38:13.195Z,10.55
2023-05-06T05:40:39.549Z,11.35
2023-05-06T05:43:05.884Z,11.02
2023-05-06T05:45:32.214Z,10.47
2023-05-06T05:47:58.629Z,11.27
2023-05-06T05:50:24.971Z,11.05
2023-05-06T05:52:52.371Z,10.10
2023-05-06T05:55:18.751Z,10.45
2023-05-06T05:57:45.086Z,9.80
2023-05-06T06:00:13.471Z,9.98
2023-05-06T06:02:40.218Z,9.65
2023-05-06T06:05:07.229Z,9.57
2023-05-06T06:07:33.765Z,9.95
2023-05-06T06:10:00.161Z,9.67
2023-05-06T06:12:26.503Z,9.75
2023-05-06T06:14:52.863Z,9.15
2023-05-06T06:17:19.236Z,9.02
2023-05-06T06:19:46.255Z,8.32
2023-05-06T06:22:13.052Z,7.67
2023-05-06T06:24:39.406Z,7.70
2023-05-06T06:27:05.717Z,7.32
2023-05-06T06:29:32.070Z,7.70
2023-05-06T06:31:59.133Z,7.20
2023-05-06T06:34:25.537Z,6.53
2023-05-06T06:36:51.864Z,7.18
2023-05-06T06:39:18.199Z,7.82
2023-05-06T06:41:44.521Z,7.57
2023-05-06T06:44:10.888Z,7.72
2023-05-06T06:46:37.234Z,7.60
2023-05-06T06:49:03.572Z,7.85
2023-05-06T06:51:29.896Z,8.15
2023-05-06T06:53:56.229Z,7.68
2023-05-06T06:56:22.553Z,8.75
2023-05-06T06:58:49.573Z,7.67
2023-05-06T07:01:17.175Z,7.72
2023-05-06T07:03:43.558Z,8.57
2023-05-06T07:06:09.888Z,7.93
2023-05-06T07:08:36.235Z,8.90
2023-05-06T07:11:03.632Z,9.00
2023-05-06T07:13:29.977Z,8.77
2023-05-06T07:15:56.304Z,9.55
2023-05-06T07:18:22.668Z,9.10
2023-05-06T07:20:49.032Z,8.55
2023-05-06T07:23:15.375Z,8.23
2023-05-06T07:25:41.706Z,9.95
2023-05-06T07:28:08.087Z,8.63
2023-05-06T07:30:34.421Z,10.15
2023-05-06T07:33:00.833Z,9.07
2023-05-06T07:35:27.273Z,10.33
2023-05-06T07:37:53.631Z,9.70
2023-05-06T07:40:19.980Z,10.68
2023-05-06T07:42:46.352Z,10.82
2023-05-06T07:45:12.917Z,10.60
2023-05-06T07:47:39.538Z,10.57
2023-05-06T07:50:06.356Z,11.63
2023-05-06T07:52:32.737Z,13.18
2023-05-06T07:54:59.105Z,12.00
2023-05-06T07:57:25.527Z,12.15
2023-05-06T07:59:52.162Z,12.23
2023-05-06T08:02:18.764Z,13.18
2023-05-06T08:04:45.422Z,12.45
2023-05-06T08:07:11.859Z,14.48
2023-05-06T08:09:38.199Z,14.95
2023-05-06T08:12:04.696Z,13.73
2023-05-06T08:14:31.117Z,13.68
2023-05-06T08:16:57.456Z,13.43
2023-05-06T08:19:23.791Z,13.48
2023-05-06T08:21:50.123Z,13.40
2023-05-06T08:24:16.456Z,12.70
2023-05-06T08:26:42.805Z,13.23
2023-05-06T08:29:09.137Z,12.93
2023-05-06T08:31:36.560Z,12.98
2023-05-06T08:34:02.948Z,12.10
2023-05-06T08:36:29.290Z,12.83
2023-05-06T08:38:55.623Z,13.25
2023-05-06T08:41:22.127Z,13.90
2023-05-06T08:43:49.635Z,14.80
2023-05-06T08:46:16.914Z,14.98
2023-05-06T08:48:43.566Z,15.97
2023-05-06T08:51:13.683Z,16.50
2023-05-06T08:53:40.186Z,17.23
2023-05-06T08:56:10.547Z,17.42
2023-05-06T08:58:38.869Z,19.23
2023-05-06T09:01:05.487Z,18.63
2023-05-06T09:03:32.060Z,18.63
2023-05-06T09:05:58.572Z,18.05
2023-05-06T09:08:25.121Z,16.77
2023-05-06T09:10:51.517Z,17.30
2023-05-06T09:13:18.893Z,17.20
2023-05-06T09:15:47.298Z,16.77
2023-05-06T09:18:14.479Z,15.00
2023-05-06T09:20:42.417Z,16.08
2023-05-06T09:23:09.635Z,16.02
2023-05-06T09:25:36.925Z,15.90
2023-05-06T09:28:04.539Z,14.57
2023-05-06T09:30:30.886Z,15.52
2023-05-06T09:32:57.459Z,13.40
2023-05-06T09:35:28.140Z,13.43
2023-05-06T09:37:54.826Z,12.47
2023-05-06T09:40:25.236Z,14.40
2023-05-06T09:42:51.606Z,14.52
2023-05-06T09:45:18.014Z,11.45
2023-05-06T09:47:44.364Z,11.52
2023-05-06T09:50:13.448Z,11.87
2023-05-06T09:52:39.872Z,12.00
2023-05-06T09:55:06.573Z,11.32
2023-05-06T09:57:32.915Z,11.73
2023-05-06T10:00:00.108Z,12.82
2023-05-06T10:02:26.690Z,12.17
2023-05-06T10:04:54.737Z,11.02
2023-05-06T10:07:21.538Z,11.57
2023-05-06T10:09:49.060Z,10.93
2023-05-06T10:12:16.312Z,10.95
2023-05-06T10:14:42.642Z,9.80
2023-05-06T10:17:09.898Z,10.75
2023-05-06T10:19:40.027Z,9.95
2023-05-06T10:22:31.039Z,9.13
2023-05-06T10:25:05.007Z,9.23
2023-05-06T10:27:35.525Z,8.27
2023-05-06T10:30:02.991Z,8.40
2023-05-06T10:32:32.294Z,8.55
2023-05-06T10:35:05.692Z,8.25
2023-05-06T10:37:32.610Z,8.68
2023-05-06T10:39:59.677Z,9.17
2023-05-06T10:42:27.460Z,9.07
2023-05-06T10:45:01.644Z,8.23
2023-05-06T10:47:28.039Z,9.23
2023-05-06T10:50:18.942Z,8.20
2023-05-06T10:52:46.020Z,8.50
2023-05-06T10:55:31.532Z,8.85
2023-05-06T10:58:18.585Z,8.70
2023-05-06T11:00:53.710Z,8.40
2023-05-06T11:03:23.205Z,8.77
2023-05-06T11:05:51.014Z,8.73
2023-05-06T11:08:25.190Z,8.95
2023-05-06T11:10:52.669Z,8.77
2023-05-06T11:13:22.051Z,7.88
2023-05-06T11:15:49.412Z,7.50
2023-05-06T11:18:24.896Z,7.47
2023-05-06T11:20:51.948Z,6.82
2023-05-06T11:23:18.921Z,6.97
2023-05-06T11:25:45.259Z,6.38
2023-05-06T11:28:13.397Z,6.43
2023-05-06T11:30:44.160Z,6.70
2023-05-06T11:33:17.908Z,5.95
2023-05-06T11:35:44.603Z,6.05
2023-05-06T11:38:11.079Z,5.80
2023-05-06T11:40:37.475Z,5.72
2023-05-06T11:43:16.619Z,5.70
2023-05-06T11:45:46.395Z,5.68
2023-05-06T11:48:16.894Z,5.40
2023-05-06T11:50:48.492Z,6.20
2023-05-06T11:53:17.356Z,6.25
2023-05-06T11:55:44.449Z,5.70
2023-05-06T11:58:19.026Z,6.38
2023-05-06T12:00:51.229Z,5.93
2023-05-06T12:03:21.299Z,5.60
2023-05-06T12:05:49.044Z,6.20
2023-05-06T12:08:26.608Z,7.43
2023-05-06T12:10:59.853Z,7.30
2023-05-06T12:13:27.154Z,6.40
2023-05-06T12:15:54.719Z,5.38
2023-05-06T12:18:21.513Z,5.47
2023-05-06T12:20:47.833Z,5.30
2023-05-06T12:23:15.927Z,5.70
2023-05-06T12:25:43.389Z,5.95
2023-05-06T12:28:16.725Z,6.50
2023-05-06T12:30:43.666Z,6.68
2023-05-06T12:33:10.192Z,5.90
2023-05-06T12:35:37.055Z,7.50
2023-05-06T12:38:10.221Z,8.25
2023-05-06T12:40:36.631Z,8.75
2023-05-06T12:43:02.969Z,8.77
2023-05-06T12:45:29.423Z,8.57
2023-05-06T12:47:57.720Z,8.38
2023-05-06T12:50:40.495Z,7.32
2023-05-06T12:53:08.268Z,7.07
2023-05-06T12:55:37.842Z,6.65
2023-05-06T12:58:04.326Z,7.10
2023-05-06T13:00:30.651Z,7.68
2023-05-06T13:02:57.075Z,7.50
2023-05-06T13:05:23.461Z,7.43
2023-05-06T13:07:50.027Z,7.00
2023-05-06T13:10:16.357Z,7.13
2023-05-06T13:12:42.921Z,6.18
2023-05-06T13:15:09.678Z,5.80
2023-05-06T13:17:36.106Z,5.53
2023-05-06T13:20:04.451Z,5.45
2023-05-06T13:22:40.322Z,5.90
2023-05-06T13:25:13.592Z,6.00
2023-05-06T13:27:39.902Z,5.65
2023-05-06T13:30:06.761Z,5.25
2023-05-06T13:32:33.178Z,4.85
2023-05-06T13:34:59.589Z,3.60
2023-05-06T13:37:25.901Z,3.28
2023-05-06T13:39:53.275Z,3.33
2023-05-06T13:42:19.593Z,4.22
2023-05-06T13:44:45.922Z,4.13
2023-05-06T13:47:12.254Z,4.30
2023-05-06T13:49:38.594Z,4.13
2023-05-06T13:52:07.115Z,3.58
2023-05-06T13:54:34.434Z,4.18
2023-05-06T13:57:00.786Z,3.72
2023-05-06T13:59:27.136Z,3.50
2023-05-06T14:01:54.018Z,3.80
2023-05-06T14:04:20.376Z,3.25
2023-05-06T14:06:46.842Z,3.30
2023-05-06T14:09:13.162Z,3.30
2023-05-06T14:11:39.498Z,4.23
2023-05-06T14:14:05.833Z,2.53
2023-05-06T14:16:32.392Z,2.70
2023-05-06T14:18:59.136Z,3.70
2023-05-06T14:21:25.527Z,4.38
2023-05-06T14:23:51.846Z,4.30
2023-05-06T14:26:18.260Z,4.00
2023-05-06T14:28:44.599Z,4.30
2023-05-06T14:31:10.977Z,3.60
2023-05-06T14:33:37.977Z,3.97
2023-05-06T14:36:05.046Z,3.90
2023-05-06T14:38:31.394Z,4.18
2023-05-06T14:40:59.402Z,4.20
2023-05-06T14:43:25.962Z,3.65
2023-05-06T14:45:52.405Z,3.95
2023-05-06T14:48:18.773Z,4.30
2023-05-06T14:50:45.113Z,3.85
2023-05-06T14:53:11.516Z,4.18
2023-05-06T14:55:37.857Z,4.18
2023-05-06T14:58:04.172Z,4.03
2023-05-06T15:00:30.726Z,3.50
2023-05-06T15:02:57.062Z,4.45
2023-05-06T15:05:23.470Z,5.20
2023-05-06T15:07:49.841Z,4.40
2023-05-06T15:10:16.279Z,4.78
2023-05-06T15:12:42.627Z,4.60
2023-05-06T15:15:09.630Z,4.93
2023-05-06T15:17:37.294Z,5.07
2023-05-06T15:20:04.002Z,4.15
2023-05-06T15:22:30.415Z,5.10
2023-05-06T15:24:56.758Z,4.70
2023-05-06T15:27:23.088Z,4.60
2023-05-06T15:29:49.426Z,4.85
2023-05-06T15:32:15.824Z,4.55
2023-05-06T15:34:42.177Z,4.07
2023-05-06T15:37:08.507Z,4.57
2023-05-06T15:39:35.639Z,4.75
2023-05-06T15:42:02.277Z,5.22
2023-05-06T15:44:28.622Z,5.00
2023-05-06T15:46:55.024Z,4.70
2023-05-06T15:51:50.603Z,5.28
2023-05-06T15:54:16.933Z,6.00
2023-05-06T15:56:43.248Z,5.78
2023-05-06T15:59:09.583Z,6.00
2023-05-06T16:02:12.829Z,5.97
2023-05-06T16:04:23.602Z,5.88
2023-05-06T16:06:50.140Z,6.50
2023-05-06T16:09:16.495Z,6.93
2023-05-06T16:11:42.946Z,6.70
2023-05-06T16:14:09.259Z,6.67
2023-05-06T16:16:35.762Z,6.82
2023-05-06T16:19:02.287Z,6.57
2023-05-06T16:21:28.682Z,6.13
2023-05-06T16:23:55.022Z,5.75
2023-05-06T16:26:22.469Z,5.83
2023-05-06T16:28:48.799Z,5.35
2023-05-06T16:31:15.342Z,6.90
2023-05-06T16:33:41.769Z,6.70
2023-05-06T16:36:08.282Z,7.47
2023-05-06T16:38:34.612Z,7.53
2023-05-06T16:41:00.928Z,7.20
2023-05-06T16:43:27.642Z,7.40
2023-05-06T16:45:53.972Z,7.53
2023-05-06T16:48:20.357Z,8.02
2023-05-06T16:50:46.756Z,7.33
2023-05-06T16:53:13.146Z,7.82
2023-05-06T16:55:39.743Z,8.48
2023-05-06T16:58:06.122Z,7.75
2023-05-06T17:00:32.688Z,8.43
2023-05-06T17:02:59.241Z,8.57
2023-05-06T17:05:25.728Z,8.13
2023-05-06T17:07:52.588Z,8.73
2023-05-06T17:10:18.960Z,9.50
2023-05-06T17:12:45.334Z,9.75
2023-05-06T17:15:11.888Z,10.87
2023-05-06T17:17:39.470Z,11.05
2023-05-06T17:20:06.482Z,11.80
2023-05-06T17:22:32.887Z,11.38
2023-05-06T17:24:59.212Z,10.77
2023-05-06T17:27:25.578Z,11.80
2023-05-06T17:29:52.971Z,12.10
2023-05-06T17:32:19.376Z,12.45
2023-05-06T17:34:46.750Z,11.70
2023-05-06T17:37:13.102Z,11.93
2023-05-06T17:39:39.473Z,11.90
2023-05-06T17:42:06.066Z,11.40
2023-05-06T17:44:32.448Z,11.60
2023-05-06T17:46:58.884Z,12.05
2023-05-06T17:49:25.279Z,11.63
2023-05-06T17:51:51.689Z,10.97
2023-05-06T17:54:18.076Z,11.43
2023-05-06T17:56:44.403Z,11.80
2023-05-06T17:59:10.717Z,11.38
2023-05-06T18:01:37.137Z,12.45
2023-05-06T18:04:03.659Z,12.07
2023-05-06T18:06:30.206Z,12.25
2023-05-06T18:08:56.589Z,11.68
2023-05-06T18:11:24.067Z,12.07
2023-05-06T18:13:50.554Z,11.95
2023-05-06T18:16:16.943Z,12.03
2023-05-06T18:18:43.272Z,12.68
2023-05-06T18:21:09.610Z,11.98
2023-05-06T18:23:37.060Z,12.43
2023-05-06T18:26:06.286Z,12.55
2023-05-06T18:28:36.227Z,11.80
2023-05-06T18:31:02.570Z,11.43
2023-05-06T18:33:28.907Z,12.68
2023-05-06T18:35:55.246Z,12.77
2023-05-06T18:38:21.576Z,12.45
2023-05-06T18:40:47.947Z,12.27
2023-05-06T18:43:14.302Z,12.43
2023-05-06T18:45:41.051Z,12.73
2023-05-06T18:48:07.410Z,12.48
2023-05-06T18:50:35.413Z,12.90
2023-05-06T18:53:01.748Z,12.83
2023-05-06T18:55:28.252Z,14.18
2023-05-06T18:57:54.687Z,12.43
2023-05-06T19:00:21.633Z,13.30
2023-05-06T19:02:48.659Z,11.68
2023-05-06T19:05:15.472Z,13.23
2023-05-06T19:07:41.950Z,13.25
2023-05-06T19:10:08.766Z,13.43
2023-05-06T19:12:35.277Z,12.98
2023-05-06T19:15:02.691Z,13.10
2023-05-06T19:17:29.179Z,12.77
2023-05-06T19:19:55.652Z,13.65
2023-05-06T19:22:22.165Z,12.70
2023-05-06T19:24:48.578Z,13.73
2023-05-06T19:27:16.011Z,13.98
2023-05-06T19:29:42.401Z,13.63
2023-05-06T19:32:08.851Z,13.80
2023-05-06T19:34:35.268Z,13.07
2023-05-06T19:37:01.625Z,13.07
2023-05-06T19:39:28.022Z,13.07
2023-05-06T19:41:54.381Z,13.00
2023-05-06T19:44:21.194Z,11.90
2023-05-06T19:46:49.192Z,13.07
2023-05-06T19:49:16.612Z,13.05
2023-05-06T19:51:43.986Z,13.38
2023-05-06T19:54:10.406Z,12.93
2023-05-06T19:56:43.596Z,13.10
2023-05-06T19:59:10.942Z,12.43
2023-05-06T20:01:37.520Z,11.60
2023-05-06T20:04:03.995Z,11.68
2023-05-06T20:06:30.606Z,10.93
2023-05-06T20:08:56.911Z,10.93
2023-05-06T20:11:23.238Z,11.15
2023-05-06T20:13:49.575Z,11.00
2023-05-06T20:16:17.059Z,11.32
2023-05-06T20:18:43.421Z,10.80
2023-05-06T20:21:09.782Z,10.77
2023-05-06T20:23:36.189Z,10.75
2023-05-06T20:26:02.534Z,11.07
2023-05-06T20:28:28.914Z,10.80
2023-05-06T20:30:55.274Z,10.50
2023-05-06T20:33:21.606Z,9.95
2023-05-06T20:35:48.081Z,10.23
2023-05-06T20:38:15.501Z,10.35
2023-05-06T20:40:41.867Z,10.68
2023-05-06T20:43:08.201Z,9.97
2023-05-06T20:45:35.683Z,9.10
2023-05-06T20:48:02.341Z,9.77
2023-05-06T20:50:28.768Z,9.13
2023-05-06T20:52:56.194Z,9.73
2023-05-06T20:55:22.761Z,9.77
2023-05-06T20:57:49.177Z,9.70
2023-05-06T21:00:15.594Z,9.57
2023-05-06T21:02:43.108Z,10.02
2023-05-06T21:05:09.973Z,10.48
2023-05-06T21:07:36.501Z,11.77
2023-05-06T21:10:03.840Z,11.30
2023-05-06T21:12:30.182Z,11.90
2023-05-06T21:14:58.359Z,11.65
2023-05-06T21:17:24.947Z,11.32
2023-05-06T21:19:51.411Z,11.87
2023-05-06T21:22:17.754Z,12.02
2023-05-06T21:24:44.097Z,11.95
2023-05-06T21:27:10.545Z,11.90
2023-05-06T21:29:36.869Z,11.95
2023-05-06T21:32:03.208Z,12.30
2023-05-06T21:34:29.589Z,12.55
2023-05-06T21:36:56.957Z,11.70
2023-05-06T21:39:23.437Z,12.88
2023-05-06T21:41:50.860Z,11.60
2023-05-06T21:44:17.173Z,12.43
2023-05-06T21:46:43.588Z,11.85
2023-05-06T21:49:09.948Z,11.82
2023-05-06T21:51:36.279Z,11.07
2023-05-06T21:54:02.877Z,11.52
2023-05-06T21:56:30.281Z,11.00
2023-05-06T21:58:56.611Z,12.05
2023-05-06T22:01:23.567Z,11.82
2023-05-06T22:03:50.116Z,11.68
2023-05-06T22:06:16.567Z,11.60
2023-05-06T22:08:42.944Z,11.90
2023-05-06T22:11:09.314Z,10.70
2023-05-06T22:13:35.669Z,10.32
2023-05-06T22:16:02.064Z,10.20
2023-05-06T22:18:28.768Z,10.48
2023-05-06T22:20:56.154Z,10.97
2023-05-06T22:23:23.574Z,9.95
2023-05-06T22:25:50.484Z,10.02
2023-05-06T22:28:16.806Z,10.45
2023-05-06T22:30:43.134Z,10.20
2023-05-06T22:33:09.492Z,9.47
2023-05-06T22:35:35.895Z,10.00
2023-05-06T22:38:02.219Z,9.88
2023-05-06T22:40:28.586Z,10.02
2023-05-06T22:42:55.504Z,9.30
2023-05-06T22:45:21.832Z,9.27
2023-05-06T22:47:48.173Z,8.68
2023-05-06T22:50:14.539Z,8.35
2023-05-06T22:52:40.905Z,8.55
2023-05-06T22:55:07.829Z,8.43
2023-05-06T22:57:34.301Z,8.40
2023-05-06T23:00:01.820Z,8.10
2023-05-06T23:02:28.184Z,8.10
2023-05-06T23:04:54.528Z,8.98
2023-05-06T23:07:20.869Z,8.50
2023-05-06T23:09:47.201Z,8.03
2023-05-06T23:12:14.591Z,7.85
2023-05-06T23:14:41.334Z,9.00
2023-05-06T23:17:07.819Z,7.82
2023-05-06T23:19:34.452Z,7.75
2023-05-06T23:22:00.842Z,8.33
2023-05-06T23:24:27.172Z,7.28
2023-05-06T23:26:53.501Z,7.90
2023-05-06T23:29:19.912Z,7.40
2023-05-06T23:31:46.242Z,7.25
2023-05-06T23:34:12.564Z,7.57
2023-05-06T23:36:39.951Z,8.32
2023-05-06T23:39:06.272Z,7.38
2023-05-06T23:41:32.637Z,7.43
2023-05-06T23:43:58.986Z,7.43
2023-05-06T23:46:25.485Z,7.17
2023-05-06T23:48:51.882Z,6.95
2023-05-06T23:51:18.250Z,7.28
2023-05-06T23:53:44.892Z,6.30
2023-05-06T23:56:11.245Z,6.78
2023-05-06T23:58:37.553Z,7.20
